Time;durP1;ratioP1;P1;durP2;ratioP2;P2;SDS_P1;SDS_P2;PMS_P1;PMS_P2;Temp;Humidity;BMP_temperature;BMP_pressure;BME280_temperature;BME280_humidity;BME280_pressure;Samples;Min_cycle;Max_cycle;Signal;HPM_P1;HPM_P2
2021/12/02 00:00:02;;;;;;;11.88;1.38;;;;;;;4.62;100.00;100011.97;5032135;28;20084;-74
2021/12/02 00:02:27;;;;;;;10.93;1.50;;;;;;;4.61;100.00;100011.06;5027539;28;20807;-73
2021/12/02 00:04:53;;;;;;;11.65;1.25;;;;;;;4.63;100.00;100022.44;5012305;28;20037;-74
2021/12/02 00:07:18;;;;;;;14.25;1.63;;;;;;;4.67;100.00;100029.47;5036866;28;20029;-74
2021/12/02 00:09:45;;;;;;;8.50;1.33;;;;;;;4.75;100.00;100026.19;5030503;28;20095;-74
2021/12/02 00:12:11;;;;;;;11.65;1.40;;;;;;;4.81;100.00;100026.38;5027161;28;20060;-74
2021/12/02 00:14:47;;;;;;;11.73;1.40;;;;;;;4.85;100.00;100023.00;5031600;28;20029;-74
2021/12/02 00:17:28;;;;;;;12.60;1.27;;;;;;;4.81;99.84;100019.41;5023568;28;20029;-74
2021/12/02 00:23:17;;;;;;;11.38;1.48;;;;;;;4.79;95.91;100013.31;5029649;28;20076;-74
2021/12/02 00:25:43;;;;;;;7.97;0.65;;;;;;;4.83;93.55;100014.25;5025885;28;20045;-73
2021/12/02 00:28:09;;;;;;;4.32;0.70;;;;;;;4.80;94.44;100016.78;5032937;28;20481;-74
2021/12/02 00:30:35;;;;;;;8.95;1.10;;;;;;;4.83;93.61;100001.22;5031505;28;20021;-74
2021/12/02 00:33:01;;;;;;;10.27;1.23;;;;;;;4.88;92.42;100002.22;5031917;28;20508;-74
2021/12/02 00:35:27;;;;;;;4.68;1.77;;;;;;;4.87;93.26;100003.06;5027234;28;20038;-74
2021/12/02 00:37:54;;;;;;;7.03;0.80;;;;;;;4.90;92.39;100008.38;5026328;28;20036;-73
2021/12/02 00:40:20;;;;;;;3.35;1.20;;;;;;;4.97;88.63;99986.81;5031985;28;20392;-73
2021/12/02 00:42:46;;;;;;;7.82;0.80;;;;;;;5.05;87.64;99994.84;5032911;28;20021;-73
2021/12/02 00:45:11;;;;;;;10.27;1.30;;;;;;;5.09;87.72;99998.38;5029087;28;20389;-74
2021/12/02 00:47:38;;;;;;;8.32;1.17;;;;;;;5.14;87.71;99994.19;5033719;28;20034;-74
2021/12/02 00:50:04;;;;;;;6.55;1.27;;;;;;;5.09;90.27;100001.91;5035034;28;20025;-75
2021/12/02 00:52:31;;;;;;;5.75;1.30;;;;;;;5.02;91.64;100003.47;5041714;28;20039;-74
2021/12/02 00:54:56;;;;;;;7.43;1.67;;;;;;;4.96;91.70;100016.34;5035885;28;20484;-73
2021/12/02 00:57:22;;;;;;;7.15;1.08;;;;;;;4.94;92.09;100014.53;5035368;28;20109;-74
2021/12/02 00:59:49;;;;;;;7.07;1.08;;;;;;;4.90;93.38;100018.78;5036734;28;20029;-74
2021/12/02 01:02:15;;;;;;;8.75;1.27;;;;;;;4.86;93.34;100025.66;5038791;28;20029;-74
2021/12/02 01:04:41;;;;;;;8.88;1.23;;;;;;;4.89;91.46;100030.06;5045075;28;20037;-74
2021/12/02 01:07:08;;;;;;;4.65;0.77;;;;;;;4.91;91.88;100028.41;5037283;28;20490;-74
2021/12/02 01:09:34;;;;;;;8.07;0.80;;;;;;;4.87;91.51;100023.91;5038302;28;20029;-74
2021/12/02 01:12:00;;;;;;;6.28;0.70;;;;;;;4.81;90.97;100021.16;5035397;28;20034;-74
2021/12/02 01:14:27;;;;;;;17.02;2.28;;;;;;;4.71;90.69;100020.03;5035168;28;20022;-73
2021/12/02 01:16:52;;;;;;;4.30;0.93;;;;;;;4.65;90.51;100009.44;5035310;28;20029;-74
2021/12/02 01:19:18;;;;;;;9.05;1.25;;;;;;;4.59;89.88;100007.56;5036980;28;20373;-74
2021/12/02 01:21:43;;;;;;;1.70;0.50;;;;;;;4.56;90.52;100017.91;5040883;28;20112;-74
2021/12/02 01:24:15;;;;;;;7.45;0.80;;;;;;;4.52;90.82;100019.53;5044571;28;20029;-74
2021/12/02 01:26:45;;;;;;;9.88;0.90;;;;;;;4.52;91.58;100019.53;5037218;28;20049;-74
2021/12/02 01:29:11;;;;;;;4.38;1.13;;;;;;;4.49;91.28;100014.25;5035340;28;20059;-74
2021/12/02 01:31:37;;;;;;;11.95;1.15;;;;;;;4.48;91.49;100015.06;5035493;28;20032;-74
2021/12/02 01:34:07;;;;;;;3.30;0.98;;;;;;;4.48;90.72;100012.47;5036504;28;20416;-73
2021/12/02 01:36:41;;;;;;;6.72;1.00;;;;;;;4.52;89.87;100009.09;5037323;28;20116;-75
2021/12/02 01:39:08;;;;;;;6.10;0.98;;;;;;;4.50;91.25;100007.28;5018051;28;20091;-73
2021/12/02 01:41:45;;;;;;;9.10;2.08;;;;;;;4.50;90.98;100025.53;5041721;28;20029;-73
2021/12/02 01:44:13;;;;;;;6.75;0.88;;;;;;;4.50;92.51;100042.06;5041387;28;20041;-74
2021/12/02 01:46:41;;;;;;;5.32;1.05;;;;;;;4.45;94.06;100033.22;5034950;28;20082;-74
2021/12/02 01:49:10;;;;;;;4.45;1.38;;;;;;;4.30;94.32;100030.16;5036009;28;20072;-74
2021/12/02 01:51:44;;;;;;;10.30;1.50;;;;;;;4.17;97.14;100028.94;5035396;28;20025;-75
2021/12/02 01:54:21;;;;;;;9.52;1.20;;;;;;;4.04;98.09;100036.41;5034809;28;20095;-75
2021/12/02 01:57:07;;;;;;;11.75;1.10;;;;;;;3.96;98.13;100031.78;5037178;28;20037;-75
2021/12/02 01:59:35;;;;;;;7.88;1.83;;;;;;;3.90;99.50;100047.22;5035504;28;20423;-74
2021/12/02 02:02:07;;;;;;;6.40;1.10;;;;;;;3.84;99.49;100051.41;5033452;28;20032;-74
2021/12/02 02:04:32;;;;;;;5.90;1.30;;;;;;;3.84;99.72;100053.13;5035521;28;20112;-74
2021/12/02 02:07:00;;;;;;;8.65;1.05;;;;;;;3.86;99.23;100057.53;5037922;28;20129;-75
2021/12/02 02:09:29;;;;;;;4.60;1.02;;;;;;;3.87;99.32;100053.22;5033745;28;20052;-75
2021/12/02 02:11:55;;;;;;;7.55;1.42;;;;;;;3.93;97.45;100052.53;5035252;28;20037;-75
2021/12/02 02:14:23;;;;;;;10.05;0.70;;;;;;;3.97;96.96;100060.47;5038900;28;20075;-75
2021/12/02 02:16:49;;;;;;;5.65;0.70;;;;;;;4.05;96.13;100058.97;5035286;28;20025;-75
2021/12/02 02:19:15;;;;;;;4.35;0.80;;;;;;;4.13;96.51;100047.91;5053749;28;20022;-74
2021/12/02 02:21:42;;;;;;;9.23;1.45;;;;;;;4.19;96.42;100051.59;5033242;28;20029;-74
2021/12/02 02:24:12;;;;;;;6.50;0.88;;;;;;;4.22;93.48;100048.19;5040800;28;20057;-74
2021/12/02 02:26:38;;;;;;;8.80;0.82;;;;;;;4.23;93.87;100039.53;5039533;28;20045;-75
2021/12/02 02:29:06;;;;;;;6.88;1.10;;;;;;;4.22;93.46;100036.06;5032928;28;20025;-74
2021/12/02 02:31:35;;;;;;;6.63;0.55;;;;;;;4.21;91.37;100039.47;5032627;28;20037;-75
2021/12/02 02:34:00;;;;;;;4.95;0.75;;;;;;;4.17;91.99;100039.38;5035831;28;20037;-74
2021/12/02 02:36:30;;;;;;;1.27;0.50;;;;;;;4.18;91.27;100033.31;5040638;28;20039;-74
2021/12/02 02:38:56;;;;;;;5.10;0.73;;;;;;;4.19;92.41;100029.84;5038212;28;20022;-74
2021/12/02 02:41:24;;;;;;;7.72;1.08;;;;;;;4.17;91.76;100039.38;5038638;28;20059;-74
2021/12/02 02:43:52;;;;;;;2.45;0.47;;;;;;;4.21;90.52;100030.81;5033166;28;20064;-75
2021/12/02 02:46:22;;;;;;;3.55;0.50;;;;;;;4.24;90.36;100030.88;5034837;28;20051;-75
2021/12/02 02:48:48;;;;;;;5.22;0.40;;;;;;;4.25;90.45;100035.25;5035133;28;20038;-74
2021/12/02 02:51:14;;;;;;;2.28;0.43;;;;;;;4.31;89.21;100045.84;5034267;28;20033;-74
2021/12/02 02:53:39;;;;;;;3.97;0.38;;;;;;;4.33;91.01;100057.19;5032816;28;20473;-74
2021/12/02 03:01:26;;;;;;;5.85;0.63;;;;;;;4.28;94.77;100066.59;5030898;28;20108;-75
2021/12/02 03:07:13;;;;;;;7.82;0.82;;;;;;;4.21;96.44;100086.34;5034413;28;20044;-74
2021/12/02 03:12:01;;;;;;;6.28;1.13;;;;;;;4.21;96.13;100083.75;5034314;28;20424;-74
2021/12/02 03:14:46;;;;;;;8.30;1.13;;;;;;;4.24;95.12;100090.78;5035452;28;20022;-73
2021/12/02 03:17:14;;;;;;;7.15;0.82;;;;;;;4.19;96.81;100105.38;5032554;28;20083;-74
2021/12/02 03:19:46;;;;;;;7.03;0.60;;;;;;;4.12;99.06;100111.25;5032710;28;20476;-74
2021/12/02 03:22:13;;;;;;;5.88;0.68;;;;;;;4.01;100.00;100093.56;5033928;28;20034;-74
2021/12/02 03:24:39;;;;;;;1.63;0.43;;;;;;;3.84;100.00;100079.16;5035506;28;20037;-73
2021/12/02 03:27:06;;;;;;;2.55;0.38;;;;;;;3.73;100.00;100081.44;5021950;28;20061;-74
2021/12/02 03:29:31;;;;;;;0.35;0.20;;;;;;;3.61;100.00;100071.50;5034581;28;20033;-74
2021/12/02 03:31:57;;;;;;;1.88;0.47;;;;;;;3.52;100.00;100071.19;5036723;28;20033;-74
2021/12/02 03:34:23;;;;;;;6.70;0.40;;;;;;;3.45;100.00;100066.63;5031828;28;20052;-75
2021/12/02 03:36:48;;;;;;;8.77;0.70;;;;;;;3.41;100.00;100090.78;5030970;28;20028;-75
2021/12/02 03:39:14;;;;;;;5.28;0.63;;;;;;;3.34;100.00;100077.56;5033762;28;20528;-76
2021/12/02 03:41:40;;;;;;;7.30;0.70;;;;;;;3.20;100.00;100063.19;5033326;28;20143;-75
2021/12/02 03:44:07;;;;;;;9.73;1.00;;;;;;;3.12;100.00;100065.56;5033182;28;20045;-75
2021/12/02 03:46:33;;;;;;;4.05;0.60;;;;;;;3.11;100.00;100063.78;5032383;28;20029;-74
2021/12/02 03:48:59;;;;;;;6.88;1.00;;;;;;;3.12;100.00;100072.47;5032610;28;20029;-73
2021/12/02 03:51:27;;;;;;;3.55;0.88;;;;;;;3.17;100.00;100073.50;5032394;28;20143;-74
2021/12/02 03:53:53;;;;;;;5.50;0.68;;;;;;;3.18;100.00;100083.94;5031714;28;20470;-74
2021/12/02 03:56:19;;;;;;;9.48;1.23;;;;;;;3.23;100.00;100091.03;5035694;28;20055;-75
2021/12/02 03:58:46;;;;;;;20.73;1.08;;;;;;;3.30;100.00;100087.81;5032090;28;20033;-73
2021/12/02 04:01:13;;;;;;;6.88;0.98;;;;;;;3.31;100.00;100089.56;5042447;28;20029;-74
2021/12/02 04:03:40;;;;;;;4.70;0.70;;;;;;;3.28;100.00;100081.66;5036584;28;20033;-74
2021/12/02 04:06:08;;;;;;;10.65;1.30;;;;;;;3.22;100.00;100077.16;5033252;28;20037;-73
2021/12/02 04:12:07;;;;;;;10.93;0.70;;;;;;;3.23;100.00;100076.31;5031886;28;20511;-73
2021/12/02 04:16:40;;;;;;;12.95;1.00;;;;;;;3.34;100.00;100103.56;5033478;28;20041;-74
2021/12/02 04:19:10;;;;;;;10.82;0.90;;;;;;;3.41;100.00;100111.59;5030862;28;20028;-75
2021/12/02 04:21:36;;;;;;;7.03;0.55;;;;;;;3.19;100.00;100114.31;5038989;28;20037;-75
2021/12/02 04:24:02;;;;;;;4.68;0.70;;;;;;;2.96;100.00;100100.53;5032348;28;20032;-75
2021/12/02 04:26:28;;;;;;;6.22;0.80;;;;;;;2.80;100.00;100103.41;5036371;28;20124;-75
2021/12/02 04:28:54;;;;;;;1.13;0.40;;;;;;;2.72;100.00;100099.66;5033434;28;20041;-75
2021/12/02 04:31:19;;;;;;;0.98;0.25;;;;;;;2.65;100.00;100089.03;5037344;28;20036;-75
2021/12/02 04:33:45;;;;;;;2.55;0.30;;;;;;;2.61;100.00;100086.28;5030905;28;20054;-75
2021/12/02 04:36:11;;;;;;;0.98;0.65;;;;;;;2.56;100.00;100082.63;5032973;28;20037;-74
2021/12/02 04:38:37;;;;;;;1.48;0.10;;;;;;;2.50;100.00;100089.38;5033056;28;20022;-75
2021/12/02 04:41:03;;;;;;;2.38;0.30;;;;;;;2.44;100.00;100088.25;5033233;28;20551;-74
2021/12/02 04:43:28;;;;;;;4.43;0.30;;;;;;;2.39;100.00;100077.72;5032923;28;20028;-74
2021/12/02 04:45:54;;;;;;;2.08;0.30;;;;;;;2.34;100.00;100077.50;5030385;28;20029;-74
2021/12/02 04:48:20;;;;;;;4.10;0.50;;;;;;;2.34;100.00;100082.72;5036385;28;20034;-74
2021/12/02 04:50:47;;;;;;;1.60;0.40;;;;;;;2.29;100.00;100089.47;5036138;28;20025;-74
2021/12/02 04:53:12;;;;;;;3.67;0.32;;;;;;;2.29;100.00;100093.75;5031177;28;20477;-74
2021/12/02 04:55:38;;;;;;;3.63;0.57;;;;;;;2.25;100.00;100090.19;5034003;28;20042;-74
2021/12/02 04:58:06;;;;;;;4.28;0.50;;;;;;;2.26;100.00;100097.13;5034609;28;20079;-74
2021/12/02 05:00:32;;;;;;;3.72;0.60;;;;;;;2.23;100.00;100084.03;5030201;28;20497;-74
2021/12/02 05:02:59;;;;;;;2.63;0.40;;;;;;;2.23;100.00;100086.63;5042603;28;20032;-74
2021/12/02 05:05:25;;;;;;;5.85;0.80;;;;;;;2.23;100.00;100083.16;5036777;28;20034;-74
2021/12/02 05:07:53;;;;;;;4.38;0.68;;;;;;;2.25;100.00;100087.59;5029858;28;20033;-74
2021/12/02 05:10:20;;;;;;;5.38;1.10;;;;;;;2.28;100.00;100095.47;5033211;28;20031;-74
2021/12/02 05:12:47;;;;;;;8.27;1.23;;;;;;;2.33;100.00;100091.34;5033058;28;20021;-74
2021/12/02 05:15:13;;;;;;;5.95;1.20;;;;;;;2.37;100.00;100092.31;5030529;28;20032;-75
2021/12/02 05:17:39;;;;;;;17.15;3.08;;;;;;;2.38;100.00;100091.50;5024329;28;20029;-75
2021/12/02 05:20:05;;;;;;;4.70;0.93;;;;;;;2.36;100.00;100096.66;5034785;28;20524;-74
2021/12/02 05:22:31;;;;;;;8.40;1.70;;;;;;;2.39;100.00;100097.56;5030745;28;20033;-73
2021/12/02 05:24:57;;;;;;;12.48;1.38;;;;;;;2.41;100.00;100098.53;5034990;28;20457;-73
2021/12/02 05:27:22;;;;;;;4.10;0.80;;;;;;;2.52;100.00;100092.00;5041076;28;20029;-73
2021/12/02 05:29:48;;;;;;;12.68;1.08;;;;;;;2.70;100.00;100086.63;5030031;28;20061;-73
2021/12/02 05:32:13;;;;;;;5.13;0.90;;;;;;;2.79;100.00;100091.25;5034330;28;20041;-74
2021/12/02 05:34:39;;;;;;;11.48;1.17;;;;;;;2.91;100.00;100106.41;5034609;28;20445;-74
2021/12/02 05:37:04;;;;;;;11.50;1.30;;;;;;;2.99;100.00;100105.81;5033725;28;20052;-74
2021/12/02 05:39:30;;;;;;;12.98;1.75;;;;;;;3.11;100.00;100094.09;5036095;28;20382;-74
2021/12/02 05:41:56;;;;;;;13.20;1.10;;;;;;;3.21;100.00;100111.78;5037470;28;20029;-74
2021/12/02 05:44:23;;;;;;;10.65;2.67;;;;;;;3.25;100.00;100113.66;5031955;28;20038;-75
2021/12/02 05:46:50;;;;;;;4.97;0.80;;;;;;;3.27;100.00;100108.50;5033604;28;20034;-73
2021/12/02 05:49:16;;;;;;;9.00;1.35;;;;;;;3.27;100.00;100112.00;5036735;28;20029;-74
2021/12/02 05:51:42;;;;;;;8.43;1.75;;;;;;;3.26;100.00;100105.03;5034640;28;20052;-73
2021/12/02 05:54:08;;;;;;;11.68;1.77;;;;;;;3.24;100.00;100105.78;5035045;28;20041;-73
2021/12/02 05:56:34;;;;;;;15.32;1.15;;;;;;;3.22;100.00;100113.53;5039656;28;20453;-73
2021/12/02 05:58:59;;;;;;;9.73;1.58;;;;;;;3.22;100.00;100123.94;5033084;28;20095;-74
2021/12/02 06:01:26;;;;;;;15.85;2.05;;;;;;;3.22;100.00;100147.34;5033203;28;20075;-73
2021/12/02 06:03:51;;;;;;;12.48;1.20;;;;;;;3.28;100.00;100138.88;5025888;28;20038;-73
2021/12/02 06:06:18;;;;;;;7.38;1.30;;;;;;;3.32;100.00;100131.25;5035189;28;20030;-74
2021/12/02 06:08:44;;;;;;;14.80;1.73;;;;;;;3.34;100.00;100131.28;5039926;28;20394;-74
2021/12/02 06:11:10;;;;;;;13.57;1.00;;;;;;;3.40;98.88;100128.00;5031749;28;20041;-74
2021/12/02 06:13:37;;;;;;;9.38;1.45;;;;;;;3.43;97.08;100133.31;5033967;28;20029;-74
2021/12/02 06:16:02;;;;;;;2.13;0.57;;;;;;;3.39;93.52;100137.50;5031870;28;20025;-76
2021/12/02 06:18:28;;;;;;;3.63;0.98;;;;;;;3.31;90.61;100137.28;5032497;28;20033;-74
2021/12/02 06:20:54;;;;;;;12.73;1.23;;;;;;;3.25;91.80;100138.78;5033219;28;20033;-74
2021/12/02 06:23:23;;;;;;;2.78;0.30;;;;;;;3.12;90.80;100129.66;5035105;28;20067;-75
2021/12/02 06:25:49;;;;;;;4.63;1.17;;;;;;;3.00;92.53;100123.19;5033734;28;20050;-75
2021/12/02 06:28:18;;;;;;;9.52;0.93;;;;;;;2.94;91.99;100122.09;5033540;28;20080;-76
2021/12/02 06:30:44;;;;;;;1.02;0.45;;;;;;;2.91;91.65;100117.66;5031924;28;20033;-73
2021/12/02 06:33:10;;;;;;;3.35;0.40;;;;;;;2.86;91.01;100114.00;5026582;28;20095;-75
2021/12/02 06:35:36;;;;;;;3.45;0.60;;;;;;;2.81;91.92;100121.66;5034171;28;20403;-74
2021/12/02 06:38:01;;;;;;;4.85;0.45;;;;;;;2.77;92.92;100124.06;5034389;28;20031;-75
2021/12/02 06:40:29;;;;;;;4.05;0.80;;;;;;;2.77;92.84;100127.56;5033706;28;20122;-75
2021/12/02 06:42:55;;;;;;;6.22;0.90;;;;;;;2.79;93.77;100122.44;5034111;28;20040;-73
2021/12/02 06:45:21;;;;;;;3.47;0.55;;;;;;;2.74;93.23;100113.56;5034230;28;20025;-74
2021/12/02 06:47:48;;;;;;;12.48;1.70;;;;;;;2.72;94.39;100136.03;5033829;28;20029;-74
2021/12/02 06:50:18;;;;;;;4.03;0.90;;;;;;;2.69;93.50;100132.47;5027643;28;20033;-74
2021/12/02 06:52:46;;;;;;;1.25;0.50;;;;;;;2.70;93.66;100155.03;5033940;28;20049;-75
2021/12/02 06:55:12;;;;;;;2.60;0.60;;;;;;;2.67;93.89;100149.72;5035884;28;20911;-75
2021/12/02 06:57:38;;;;;;;8.40;1.08;;;;;;;2.66;95.16;100150.56;5034847;28;20044;-75
2021/12/02 07:00:11;;;;;;;4.43;0.70;;;;;;;2.69;94.48;100152.38;5033432;28;20079;-76
2021/12/02 07:02:37;;;;;;;4.28;0.80;;;;;;;2.71;94.77;100155.91;5029745;28;20029;-74
2021/12/02 07:05:04;;;;;;;2.95;0.60;;;;;;;2.83;94.37;100155.47;5032252;28;20035;-76
2021/12/02 07:07:33;;;;;;;8.48;1.13;;;;;;;2.90;95.34;100157.47;5034930;28;20036;-75
2021/12/02 07:09:59;;;;;;;7.28;0.63;;;;;;;2.90;95.80;100167.84;5034152;28;20021;-75
2021/12/02 07:12:33;;;;;;;3.60;0.98;;;;;;;2.94;96.30;100184.47;5031843;28;20021;-76
2021/12/02 07:15:06;;;;;;;6.30;1.17;;;;;;;2.96;96.97;100173.28;5033783;28;20080;-75
2021/12/02 07:17:33;;;;;;;6.40;1.10;;;;;;;2.93;97.92;100172.28;5026187;28;20537;-76
2021/12/02 07:20:00;;;;;;;8.48;1.30;;;;;;;2.90;98.38;100173.06;5027714;28;20022;-75
2021/12/02 07:22:26;;;;;;;10.13;1.00;;;;;;;2.84;99.72;100172.84;5023116;28;20029;-74
2021/12/02 07:24:51;;;;;;;10.88;1.00;;;;;;;2.82;99.47;100179.69;5028397;28;20030;-73
2021/12/02 07:27:16;;;;;;;10.70;1.35;;;;;;;2.79;100.00;100180.47;5033278;28;20458;-74
2021/12/02 07:29:42;;;;;;;8.32;1.30;;;;;;;2.79;100.00;100182.19;5020508;28;20021;-76
2021/12/02 07:32:10;;;;;;;9.23;1.30;;;;;;;2.88;99.50;100198.13;5029018;28;20502;-74
2021/12/02 07:34:37;;;;;;;4.45;1.30;;;;;;;3.04;99.45;100197.84;5032362;28;20466;-74
2021/12/02 07:37:03;;;;;;;14.63;1.52;;;;;;;3.17;100.00;100206.09;5032596;28;20033;-74
2021/12/02 07:39:29;;;;;;;0.90;0.47;;;;;;;3.20;99.93;100201.00;5032430;28;20017;-75
2021/12/02 07:41:55;;;;;;;2.38;0.82;;;;;;;3.11;99.44;100217.16;5032850;28;20041;-74
2021/12/02 07:44:21;;;;;;;3.75;0.55;;;;;;;3.04;99.65;100218.63;5032796;28;20106;-74
2021/12/02 07:46:47;;;;;;;3.63;0.60;;;;;;;2.96;99.93;100222.69;5033658;28;20041;-74
2021/12/02 07:49:13;;;;;;;2.38;0.55;;;;;;;2.87;99.21;100231.00;5033345;28;20101;-74
2021/12/02 07:51:43;;;;;;;3.97;0.50;;;;;;;2.86;100.00;100238.72;5031314;28;20069;-73
2021/12/02 07:54:10;;;;;;;4.03;0.70;;;;;;;2.78;100.00;100234.97;5031469;28;20033;-73
2021/12/02 07:56:36;;;;;;;4.57;0.50;;;;;;;2.68;100.00;100213.81;5029837;28;20030;-74
2021/12/02 07:59:02;;;;;;;1.63;0.38;;;;;;;2.60;100.00;100219.56;5033222;28;20354;-74
2021/12/02 08:01:27;;;;;;;2.30;0.77;;;;;;;2.54;100.00;100225.41;5031834;28;20029;-74
2021/12/02 08:03:54;;;;;;;2.83;0.50;;;;;;;2.45;100.00;100236.31;5037061;28;20144;-75
2021/12/02 08:06:19;;;;;;;3.40;0.75;;;;;;;2.35;100.00;100252.38;5035774;28;20028;-75
2021/12/02 08:08:46;;;;;;;5.32;0.68;;;;;;;2.27;100.00;100251.19;5039426;28;20025;-75
2021/12/02 08:11:12;;;;;;;5.68;0.65;;;;;;;2.19;100.00;100266.44;5037450;28;20037;-74
2021/12/02 08:13:38;;;;;;;9.02;0.95;;;;;;;2.13;100.00;100263.56;5043194;28;20095;-73
2021/12/02 08:16:06;;;;;;;4.88;0.40;;;;;;;2.06;100.00;100272.81;5035395;28;20090;-73
2021/12/02 08:18:33;;;;;;;8.77;0.70;;;;;;;2.00;100.00;100273.44;5040292;28;20446;-73
2021/12/02 08:20:59;;;;;;;7.00;0.70;;;;;;;1.96;100.00;100273.25;5032537;28;20028;-73
2021/12/02 08:23:25;;;;;;;5.28;0.60;;;;;;;1.92;100.00;100274.84;5039425;28;20041;-73
2021/12/02 08:25:52;;;;;;;5.07;0.80;;;;;;;1.91;100.00;100290.34;5038563;28;20559;-73
2021/12/02 08:28:17;;;;;;;5.72;0.82;;;;;;;1.90;100.00;100294.66;5034036;28;20125;-73
2021/12/02 08:30:44;;;;;;;8.20;1.00;;;;;;;1.88;100.00;100296.28;5030265;28;21870;-74
2021/12/02 08:33:12;;;;;;;6.38;1.13;;;;;;;1.90;100.00;100302.44;5033278;28;20037;-74
2021/12/02 08:35:38;;;;;;;5.85;0.90;;;;;;;1.98;100.00;100300.16;5027587;28;20041;-74
2021/12/02 08:38:12;;;;;;;5.20;0.88;;;;;;;2.10;100.00;100315.34;5032680;28;20378;-74
2021/12/02 08:40:40;;;;;;;4.07;0.90;;;;;;;2.26;100.00;100317.75;5029520;28;20087;-72
2021/12/02 08:43:08;;;;;;;7.45;0.90;;;;;;;2.40;100.00;100330.44;5032022;28;20472;-74
2021/12/02 08:45:35;;;;;;;7.53;0.68;;;;;;;2.49;100.00;100333.41;5028221;28;20029;-73
2021/12/02 08:48:02;;;;;;;4.70;0.80;;;;;;;2.59;100.00;100330.38;5030201;28;20048;-74
2021/12/02 08:50:29;;;;;;;3.50;0.52;;;;;;;2.61;100.00;100335.63;5031742;28;20025;-73
2021/12/02 08:52:57;;;;;;;3.55;0.50;;;;;;;2.65;100.00;100333.22;5032791;28;20036;-73
2021/12/02 08:55:24;;;;;;;2.53;0.60;;;;;;;2.67;100.00;100336.75;5031329;28;20029;-74
2021/12/02 08:57:52;;;;;;;4.22;0.47;;;;;;;2.70;100.00;100334.28;5032777;28;20022;-73
2021/12/02 09:00:22;;;;;;;2.72;0.30;;;;;;;2.77;100.00;100326.72;5028783;28;20042;-74
2021/12/02 09:02:47;;;;;;;2.03;0.40;;;;;;;2.79;100.00;100333.75;5030715;28;20033;-73
2021/12/02 09:05:13;;;;;;;1.48;0.30;;;;;;;2.81;100.00;100328.63;5034064;28;20035;-73
2021/12/02 09:07:39;;;;;;;4.25;0.82;;;;;;;2.85;100.00;100322.75;5038750;28;20032;-73
2021/12/02 09:10:07;;;;;;;6.45;0.85;;;;;;;2.91;100.00;100335.94;5037809;28;20529;-73
2021/12/02 09:12:33;;;;;;;8.00;0.38;;;;;;;2.97;100.00;100340.50;5042229;28;20033;-74
2021/12/02 09:14:59;;;;;;;5.22;0.40;;;;;;;3.06;100.00;100334.78;5038179;28;20120;-74
2021/12/02 09:17:25;;;;;;;5.18;0.50;;;;;;;3.13;100.00;100340.25;5035756;28;20048;-73
2021/12/02 09:19:51;;;;;;;0.52;0.30;;;;;;;3.25;100.00;100339.84;5042382;28;20049;-73
2021/12/02 09:22:17;;;;;;;0.57;0.20;;;;;;;3.36;100.00;100330.75;5036199;28;20044;-74
2021/12/02 09:24:42;;;;;;;3.28;0.40;;;;;;;3.49;100.00;100336.41;5041836;28;20025;-73
2021/12/02 09:27:10;;;;;;;5.45;0.88;;;;;;;3.68;100.00;100351.84;5040598;28;20076;-72
2021/12/02 09:29:35;;;;;;;3.08;0.47;;;;;;;3.96;100.00;100350.25;5039534;28;20091;-73
2021/12/02 09:32:02;;;;;;;3.75;0.52;;;;;;;4.25;99.00;100354.72;5041640;28;20033;-73
2021/12/02 09:34:30;;;;;;;1.38;0.40;;;;;;;4.60;98.07;100350.66;5039110;28;20044;-72
2021/12/02 09:36:57;;;;;;;5.20;0.60;;;;;;;5.04;95.65;100353.78;5037048;28;20029;-76
2021/12/02 09:39:29;;;;;;;5.65;1.13;;;;;;;5.23;92.78;100354.34;5042344;28;20040;-75
2021/12/02 09:41:55;;;;;;;5.07;0.70;;;;;;;4.88;94.42;100357.66;5046025;28;20025;-74
2021/12/02 09:44:20;;;;;;;4.15;0.60;;;;;;;4.73;95.41;100363.25;5038379;28;20508;-74
2021/12/02 09:46:46;;;;;;;2.60;0.50;;;;;;;4.40;96.80;100373.44;5038205;28;20139;-73
2021/12/02 09:49:13;;;;;;;5.10;0.90;;;;;;;4.30;97.35;100379.16;5035831;28;20060;-74
2021/12/02 09:51:58;;;;;;;2.20;0.60;;;;;;;4.08;96.78;100365.41;5034875;28;20087;-74
2021/12/02 09:54:29;;;;;;;2.38;0.75;;;;;;;3.96;97.24;100370.16;5033735;28;20462;-75
2021/12/02 09:56:58;;;;;;;3.60;0.47;;;;;;;3.93;97.40;100370.94;5033964;28;20029;-76
2021/12/02 10:00:06;;;;;;;4.97;0.43;;;;;;;3.93;96.84;100363.13;5037151;28;20025;-74
2021/12/02 10:02:16;;;;;;;2.47;0.70;;;;;;;4.07;97.28;100384.47;5033597;28;20072;-75
2021/12/02 10:04:57;;;;;;;2.45;0.43;;;;;;;4.13;95.34;100368.19;5033817;28;20025;-76
2021/12/02 10:07:43;;;;;;;7.25;0.50;;;;;;;3.96;97.56;100381.50;5034002;28;20043;-76
2021/12/02 10:10:15;;;;;;;0.90;0.50;;;;;;;3.85;98.90;100414.03;5033019;28;20029;-76
2021/12/02 10:13:03;;;;;;;4.72;0.80;;;;;;;3.70;99.47;100445.56;5034957;28;20021;-76
2021/12/02 10:15:30;;;;;;;9.68;0.98;;;;;;;3.42;100.00;100449.75;5037316;28;20045;-76
2021/12/02 10:17:58;;;;;;;1.35;0.75;;;;;;;3.22;100.00;100461.94;5033670;28;20124;-75
2021/12/02 10:20:33;;;;;;;3.45;0.40;;;;;;;3.10;100.00;100471.84;5035443;28;20559;-77
2021/12/02 10:23:15;;;;;;;1.95;0.45;;;;;;;2.92;100.00;100457.28;5038873;28;20029;-77
2021/12/02 10:26:00;;;;;;;3.28;0.60;;;;;;;2.77;100.00;100446.22;5037058;28;20128;-77
2021/12/02 10:28:29;;;;;;;2.25;0.47;;;;;;;2.73;100.00;100454.72;5031561;28;20049;-76
2021/12/02 10:31:00;;;;;;;4.03;0.80;;;;;;;2.61;100.00;100466.38;5036390;28;20492;-75
2021/12/02 10:33:33;;;;;;;3.72;0.52;;;;;;;2.44;100.00;100473.47;5034640;28;20033;-75
2021/12/02 10:36:01;;;;;;;5.53;0.40;;;;;;;2.34;100.00;100482.53;5034628;28;20033;-76
2021/12/02 10:38:40;;;;;;;5.88;0.52;;;;;;;2.29;100.00;100510.03;5037045;28;20028;-76
2021/12/02 10:41:17;;;;;;;6.00;0.70;;;;;;;2.27;100.00;100540.22;5033367;28;20449;-76
2021/12/02 10:44:06;;;;;;;2.30;0.60;;;;;;;2.22;100.00;100536.50;5036035;28;20031;-76
2021/12/02 10:46:35;;;;;;;6.63;0.68;;;;;;;2.14;100.00;100525.81;5034227;28;20030;-76
2021/12/02 10:49:03;;;;;;;3.00;0.38;;;;;;;2.10;100.00;100536.84;5032232;28;20030;-77
2021/12/02 10:51:44;;;;;;;11.55;0.77;;;;;;;2.10;100.00;100551.53;5033752;28;20057;-77
2021/12/02 10:54:14;;;;;;;3.97;0.40;;;;;;;2.11;100.00;100541.22;5034893;28;20028;-76
2021/12/02 10:56:43;;;;;;;1.13;0.50;;;;;;;2.11;100.00;100536.03;5035049;28;20041;-76
2021/12/02 10:59:29;;;;;;;4.65;0.90;;;;;;;2.11;100.00;100529.97;5033953;28;20538;-76
2021/12/02 11:02:06;;;;;;;2.88;0.73;;;;;;;2.12;100.00;100516.16;5035541;28;20385;-76
2021/12/02 11:04:43;;;;;;;1.17;0.40;;;;;;;2.14;100.00;100507.63;5031443;28;20029;-77
2021/12/02 11:07:33;;;;;;;0.40;0.40;;;;;;;2.17;100.00;100509.44;5034959;28;20087;-77
2021/12/02 11:10:02;;;;;;;4.88;0.35;;;;;;;2.18;100.00;100499.16;5027732;28;20045;-76
2021/12/02 11:12:32;;;;;;;2.72;0.88;;;;;;;2.20;100.00;100483.66;5033190;28;20040;-76
2021/12/02 11:15:01;;;;;;;4.47;1.98;;;;;;;2.24;100.00;100513.22;5034209;28;20481;-75
2021/12/02 11:17:33;;;;;;;1.10;0.50;;;;;;;2.29;100.00;100525.59;5035287;28;20029;-77
2021/12/02 11:20:01;;;;;;;2.92;1.05;;;;;;;2.36;100.00;100511.16;5032848;28;20103;-77
2021/12/02 11:22:28;;;;;;;1.73;0.80;;;;;;;2.42;100.00;100510.56;5031959;28;20029;-77
2021/12/02 11:24:54;;;;;;;3.13;0.50;;;;;;;2.43;100.00;100495.06;5037662;28;20036;-75
2021/12/02 11:27:28;;;;;;;4.75;0.60;;;;;;;2.49;100.00;100497.91;5039807;28;20507;-75
2021/12/02 11:30:02;;;;;;;1.13;0.60;;;;;;;2.52;100.00;100498.06;5029492;28;20062;-76
2021/12/02 11:32:31;;;;;;;0.65;0.50;;;;;;;2.60;100.00;100489.69;5037122;28;20041;-76
2021/12/02 11:35:03;;;;;;;1.58;0.60;;;;;;;2.69;100.00;100496.16;5033166;28;20028;-75
2021/12/02 11:37:29;;;;;;;5.53;0.95;;;;;;;2.74;100.00;100498.06;5044165;28;20064;-75
2021/12/02 11:39:57;;;;;;;3.17;0.90;;;;;;;2.76;100.00;100499.03;5030081;28;20453;-75
2021/12/02 11:42:23;;;;;;;2.72;0.50;;;;;;;2.78;100.00;100503.47;5038897;28;20478;-75
2021/12/02 11:44:49;;;;;;;4.10;1.00;;;;;;;2.77;100.00;100500.78;5036275;28;20040;-75
2021/12/02 11:47:16;;;;;;;2.17;0.80;;;;;;;2.78;100.00;100499.97;5034873;28;20100;-75
2021/12/02 11:49:41;;;;;;;2.35;0.80;;;;;;;2.82;100.00;100497.59;5031802;28;20056;-73